Airfield :
LOGIN :

Register | Disclaimer

   EN    FR    IT 

 










Legend :    VFR   Marginal VFR   IFR   Intensive IFR   Very Intensive IFR
Visi :
Ceiling :
>= 8 km
>= 3000ft
5 to 8 km
1000 to 3000 ft
1500m to 5 km
500 to 1000 ft
800 to 1500m
200 to 500 ft
< 800m
< 200 ft
Symbols :   Thunderstorms  Fog  Heavy snow  Heavy precipitations  Wind > 20 kt
SIGMETs :     Misc.  Thunderstorms  Icing  Turbulence  Mountain Waves  Volcanic Ashes






- Airport Elevation : 187 ft


ETNW - Wunstorf AB

CURRENT METAR :
  • 032020Z AUTO 33011KT 9999 // ////// 19/12 Q1017 ///

EXPIRED METARs :
  • 031920Z AUTO 33011KT 9999 // ////// 21/13 Q1016 ///
  • 031820Z AUTO 32008KT 9999 // ////// 24/12 Q1015 ///
  • 030520Z 30005KT 9999 FEW075 19/12 Q1016 BLU+

TAF TAF ETNW
Valid from the 03 at 17:00 until the 04 at 17:00 UTC


031603Z 0317/0417 30010KT 9999 NSW SCT070
PROB30 0317/0320 32015G25KT 6000 SHRA BKN040CB
BECMG 0321/0323 28007KT 9999 NSW FEW020 SCT050
PROB30 0402/0405 VRB03KT 3000 BR FEW005 BY ETGL



MET'MAP, your aeronautical weather chart ! - Copyright ORBIFLY December 2007 - Disclaimer

ORBIFLY MET'MAP TEAM :

Programming & Development : Alexandra Zaïnal
Original concept : Baudouin d'Aumeries
Technical & hardware support : Manuel Goepfert
Assistance : Marc-Olivier Méhu




SOURCES & CREDITS :

   NOAA